Acornridge, Missouri
Current Conditions -  °F | °C
As of 6:53 PM on Friday 19 Dec 2014 (Local Time) from KPOF Reporting Station
Unknown Precip Unknown Precip  
Wind Chill:   Ceiling: 3800
Heat Index:   Visibility: 10mi
Dew Point: -1°   Wind: 6mph
Humidity: 76%   Direction: 50°NE
Pressure: 30.25"   Gusts: NA
Location:  36.9506°N, 90.1582°W
Report Text: KPOF 200053Z AUTO 05005KT 10SM UP OVC038 03/M01 A3025 RMK AO2 RAB34E48UPB48 SLP249 P0000 T00281011
Loading
Personal Weather Stations






























Interactive Weather Map New forecast layout! Learn more

10-Day Weather Forecast

Advertisements
Track Severe Weather on mobile